NPV1200 LIPZ-LPFR
Flight info
| Callsign | NPV1200 |
|---|---|
| Flight time | N/A |
| Altitude | 35000 |
| Route | DREUX DCT KEMMI DCT BARSO DCT RHONE/N0450F370 DCT LANET DCT UPISA DCT LLE DCT LUCY DCT TANGO DCT MD001 DCT INPAN DCT CRISA DCT HIJ DCT OXACA |
| Aircraft | A320/M-SDE3FGHIRWY/LB1 |
Departure
| Time | 2026-05-06 06:09 |
|---|---|
| Airport | Venice Marco Polo Airport (LIPZ) |
Arrival
| Time | N/A |
|---|---|
| Airport | Faro - Gago Coutinho International Airport (LPFR) |
| Time | Latitude | Longitude | Altitude | Speed | Heading |
|---|---|---|---|---|---|
| 2026-05-06 06:02 | 45.50539 | 12.34330 | 15 ft | 4 kts | 320° |
| 2026-05-06 06:02 | 45.50526 | 12.34340 | 17 ft | 1 kts | 358° |
| 2026-05-06 06:02 | 45.50523 | 12.34340 | 17 ft | 0 kts | 358° |
| 2026-05-06 06:04 | 45.50543 | 12.34350 | 15 ft | 9 kts | 34° |
| 2026-05-06 06:05 | 45.50553 | 12.34469 | 17 ft | 15 kts | 131° |
| 2026-05-06 06:05 | 45.50477 | 12.34560 | 16 ft | 14 kts | 176° |
| 2026-05-06 06:05 | 45.50407 | 12.34497 | 16 ft | 12 kts | 222° |
| 2026-05-06 06:05 | 45.50307 | 12.34367 | 16 ft | 27 kts | 223° |
| 2026-05-06 06:06 | 45.50152 | 12.34170 | 16 ft | 30 kts | 221° |
| 2026-05-06 06:06 | 45.49996 | 12.33971 | 15 ft | 30 kts | 222° |
| 2026-05-06 06:06 | 45.49845 | 12.33778 | 16 ft | 24 kts | 221° |
| 2026-05-06 06:06 | 45.49727 | 12.33647 | 16 ft | 20 kts | 206° |
| 2026-05-06 06:07 | 45.49623 | 12.33536 | 16 ft | 17 kts | 222° |
| 2026-05-06 06:07 | 45.49535 | 12.33561 | 16 ft | 13 kts | 131° |
| 2026-05-06 06:07 | 45.49480 | 12.33646 | 16 ft | 11 kts | 133° |
| 2026-05-06 06:07 | 45.49435 | 12.33714 | 15 ft | 8 kts | 131° |
| 2026-05-06 06:08 | 45.49421 | 12.33773 | 15 ft | 5 kts | 68° |
| 2026-05-06 06:08 | 45.49439 | 12.33806 | 16 ft | 3 kts | 47° |
| 2026-05-06 06:08 | 45.49457 | 12.33831 | 16 ft | 10 kts | 43° |
| 2026-05-06 06:08 | 45.49667 | 12.34101 | 13 ft | 74 kts | 42° |
| 2026-05-06 06:09 | 45.50187 | 12.34770 | 16 ft | 128 kts | 42° |
| 2026-05-06 06:09 | 45.50953 | 12.35762 | 105 ft | 162 kts | 43° |
| 2026-05-06 06:09 | 45.51752 | 12.36867 | 722 ft | 160 kts | 45° |
| 2026-05-06 06:09 | 45.52544 | 12.37970 | 1381 ft | 159 kts | 50° |
| 2026-05-06 06:10 | 45.53026 | 12.39356 | 1971 ft | 157 kts | 84° |
| 2026-05-06 06:10 | 45.52818 | 12.40869 | 2480 ft | 160 kts | 121° |
| 2026-05-06 06:10 | 45.52319 | 12.41640 | 2798 ft | 163 kts | 145° |
| 2026-05-06 06:10 | 45.50868 | 12.42397 | 3349 ft | 175 kts | 162° |
| 2026-05-06 06:11 | 45.50033 | 12.42526 | 3431 ft | 193 kts | 185° |
| 2026-05-06 06:11 | 45.48786 | 12.41590 | 3579 ft | 220 kts | 229° |
| 2026-05-06 06:11 | 45.48125 | 12.39495 | 3801 ft | 247 kts | 254° |
| 2026-05-06 06:11 | 45.47789 | 12.36982 | 4130 ft | 267 kts | 260° |
| 2026-05-06 06:12 | 45.47562 | 12.34312 | 4816 ft | 274 kts | 262° |
| 2026-05-06 06:12 | 45.47355 | 12.31607 | 5650 ft | 274 kts | 261° |
| 2026-05-06 06:12 | 45.47137 | 12.28903 | 6502 ft | 275 kts | 261° |
| 2026-05-06 06:12 | 45.46898 | 12.26200 | 7281 ft | 276 kts | 260° |
| 2026-05-06 06:13 | 45.46639 | 12.23483 | 8055 ft | 278 kts | 259° |
| 2026-05-06 06:13 | 45.46362 | 12.20752 | 8853 ft | 279 kts | 259° |
| 2026-05-06 06:13 | 45.46074 | 12.18008 | 9669 ft | 281 kts | 258° |
| 2026-05-06 06:13 | 45.45778 | 12.15237 | 10290 ft | 288 kts | 258° |
| 2026-05-06 06:14 | 45.45460 | 12.12298 | 10532 ft | 312 kts | 258° |
| 2026-05-06 06:14 | 45.45120 | 12.09169 | 11018 ft | 325 kts | 258° |
| 2026-05-06 06:14 | 45.44774 | 12.05962 | 11741 ft | 329 kts | 258° |
| 2026-05-06 06:14 | 45.44433 | 12.02771 | 12440 ft | 331 kts | 258° |
| 2026-05-06 06:15 | 45.44081 | 11.99478 | 13127 ft | 333 kts | 258° |
| 2026-05-06 06:15 | 45.43735 | 11.96250 | 13785 ft | 335 kts | 257° |
| 2026-05-06 06:15 | 45.43383 | 11.92956 | 14374 ft | 337 kts | 257° |
| 2026-05-06 06:15 | 45.43027 | 11.89649 | 14984 ft | 339 kts | 257° |
| 2026-05-06 06:16 | 45.42667 | 11.86328 | 15596 ft | 341 kts | 257° |
| 2026-05-06 06:16 | 45.42301 | 11.82989 | 16200 ft | 342 kts | 257° |
| 2026-05-06 06:16 | 45.41932 | 11.79635 | 16791 ft | 344 kts | 256° |
| 2026-05-06 06:16 | 45.41558 | 11.76255 | 17387 ft | 346 kts | 256° |
| 2026-05-06 06:17 | 45.41184 | 11.72863 | 17965 ft | 348 kts | 256° |
| 2026-05-06 06:17 | 45.40806 | 11.69450 | 18521 ft | 350 kts | 256° |
| 2026-05-06 06:17 | 45.40425 | 11.66009 | 19004 ft | 354 kts | 256° |
| 2026-05-06 06:17 | 45.40041 | 11.62540 | 19504 ft | 356 kts | 256° |
| 2026-05-06 06:18 | 45.39652 | 11.59051 | 19994 ft | 358 kts | 256° |
| 2026-05-06 06:18 | 45.39259 | 11.55523 | 20468 ft | 360 kts | 256° |
| 2026-05-06 06:18 | 45.38865 | 11.51997 | 20932 ft | 363 kts | 256° |